createdAt,value
2022-10-17T00:00:31.494Z,14.50
2022-10-17T00:02:58.447Z,14.15
2022-10-17T00:05:25.211Z,14.29
2022-10-17T00:07:52.514Z,14.24
2022-10-17T00:10:19.571Z,14.35
2022-10-17T00:12:46.329Z,14.41
2022-10-17T00:15:15.642Z,14.17
2022-10-17T00:17:42.623Z,14.45
2022-10-17T00:20:09.583Z,14.40
2022-10-17T00:25:08.320Z,14.50
2022-10-17T00:27:35.685Z,14.43
2022-10-17T00:30:02.378Z,13.90
2022-10-17T00:32:29.710Z,13.96
2022-10-17T00:34:57.718Z,13.86
2022-10-17T00:37:24.992Z,13.72
2022-10-17T00:39:51.908Z,13.86
2022-10-17T00:42:18.544Z,13.79
2022-10-17T00:44:47.851Z,14.13
2022-10-17T00:47:15.607Z,13.87
2022-10-17T00:49:42.260Z,14.02
2022-10-17T00:52:10.177Z,13.90
2022-10-17T00:54:37.731Z,14.03
2022-10-17T00:57:04.504Z,13.70
2022-10-17T00:59:32.772Z,13.98
2022-10-17T01:02:02.470Z,13.56
2022-10-17T01:04:30.170Z,14.02
2022-10-17T01:06:56.794Z,13.87
2022-10-17T01:09:24.405Z,13.93
2022-10-17T01:12:00.543Z,13.66
2022-10-17T01:14:46.524Z,14.04
2022-10-17T01:17:30.245Z,13.58
2022-10-17T01:20:00.724Z,13.80
2022-10-17T01:22:28.871Z,13.68
2022-10-17T01:25:06.728Z,13.90
2022-10-17T01:27:43.846Z,13.62
2022-10-17T01:30:33.287Z,13.48
2022-10-17T01:33:13.453Z,13.79
2022-10-17T01:35:48.556Z,13.80
2022-10-17T01:38:18.916Z,13.52
2022-10-17T01:41:06.318Z,13.64
2022-10-17T01:43:33.307Z,13.71
2022-10-17T01:46:02.747Z,13.57
2022-10-17T01:48:34.589Z,13.37
2022-10-17T01:51:13.915Z,13.51
2022-10-17T01:53:42.426Z,13.72
2022-10-17T01:56:09.427Z,13.41
2022-10-17T01:58:53.164Z,13.34
2022-10-17T02:01:20.204Z,13.33
2022-10-17T02:03:47.168Z,13.25
2022-10-17T02:06:13.854Z,13.30
2022-10-17T02:08:47.337Z,13.24
2022-10-17T02:11:18.678Z,13.27
2022-10-17T02:14:04.452Z,13.40
2022-10-17T02:16:50.187Z,13.48
2022-10-17T02:19:36.813Z,13.40
2022-10-17T02:22:06.942Z,13.48
2022-10-17T02:24:52.655Z,13.31
2022-10-17T02:27:32.919Z,13.18
2022-10-17T02:30:02.718Z,13.53
2022-10-17T02:32:35.430Z,13.33
2022-10-17T02:35:03.093Z,13.38
2022-10-17T02:37:30.419Z,13.51
2022-10-17T02:39:58.280Z,13.43
2022-10-17T02:42:25.288Z,13.54
2022-10-17T02:44:52.026Z,13.46
2022-10-17T02:47:23.731Z,13.12
2022-10-17T02:49:51.741Z,13.33
2022-10-17T02:52:29.804Z,13.24
2022-10-17T02:54:59.107Z,13.52
2022-10-17T02:57:31.061Z,13.31
2022-10-17T02:59:58.771Z,13.26
2022-10-17T03:02:25.510Z,13.02
2022-10-17T03:04:52.286Z,13.39
2022-10-17T03:07:19.277Z,13.00
2022-10-17T03:09:45.958Z,13.08
2022-10-17T03:12:12.753Z,13.14
2022-10-17T03:14:39.837Z,12.99
2022-10-17T03:17:06.658Z,13.32
2022-10-17T03:19:33.432Z,13.23
2022-10-17T03:22:00.407Z,13.07
2022-10-17T03:24:27.348Z,12.92
2022-10-17T03:26:54.230Z,12.80
2022-10-17T03:29:21.514Z,12.88
2022-10-17T03:31:48.280Z,13.12
2022-10-17T03:34:17.709Z,13.09
2022-10-17T03:36:45.362Z,13.11
2022-10-17T03:39:12.208Z,13.15
2022-10-17T03:41:38.945Z,12.87
2022-10-17T03:44:06.075Z,12.60
2022-10-17T03:46:33.556Z,13.00
2022-10-17T03:49:00.394Z,12.75
2022-10-17T03:51:27.546Z,13.16
2022-10-17T03:53:54.671Z,12.76
2022-10-17T03:56:22.634Z,12.93
2022-10-17T03:58:51.059Z,12.91
2022-10-17T04:01:19.378Z,12.97
2022-10-17T04:03:53.155Z,12.90
2022-10-17T04:06:20.081Z,12.66
2022-10-17T04:08:47.336Z,12.65
2022-10-17T04:11:15.320Z,12.63
2022-10-17T04:13:42.433Z,12.76
2022-10-17T04:16:12.171Z,12.45
2022-10-17T04:18:39.461Z,12.47
2022-10-17T04:21:06.478Z,12.61
2022-10-17T04:23:33.635Z,12.60
2022-10-17T04:26:07.611Z,12.56
2022-10-17T04:28:34.815Z,12.74
2022-10-17T04:31:02.578Z,12.51
2022-10-17T04:33:31.456Z,12.67
2022-10-17T04:36:02.014Z,12.69
2022-10-17T04:38:29.931Z,12.77
2022-10-17T04:41:03.129Z,12.68
2022-10-17T04:43:33.788Z,12.81
2022-10-17T04:46:01.363Z,12.45
2022-10-17T04:48:28.282Z,12.69
2022-10-17T04:51:02.535Z,12.73
2022-10-17T04:53:33.995Z,12.39
2022-10-17T04:56:00.956Z,12.31
2022-10-17T04:58:31.011Z,12.50
2022-10-17T05:00:57.715Z,12.38
2022-10-17T05:03:27.574Z,12.40
2022-10-17T05:05:54.475Z,12.59
2022-10-17T05:08:22.921Z,12.47
2022-10-17T05:10:50.274Z,12.51
2022-10-17T05:13:19.433Z,12.70
2022-10-17T05:15:46.397Z,12.38
2022-10-17T05:18:13.409Z,12.41
2022-10-17T05:20:41.305Z,12.65
2022-10-17T05:23:08.042Z,12.74
2022-10-17T05:25:35.124Z,12.71
2022-10-17T05:28:02.002Z,12.64
2022-10-17T05:30:35.081Z,12.49
2022-10-17T05:33:04.823Z,12.70
2022-10-17T05:35:31.966Z,12.63
2022-10-17T05:37:59.314Z,12.51
2022-10-17T05:40:26.510Z,12.40
2022-10-17T05:42:53.664Z,12.70
2022-10-17T05:45:21.402Z,12.55
2022-10-17T05:47:48.368Z,12.50
2022-10-17T05:50:16.368Z,12.69
2022-10-17T05:52:46.386Z,12.42
2022-10-17T05:55:15.063Z,12.70
2022-10-17T05:57:41.777Z,13.03
2022-10-17T06:00:10.745Z,12.97
2022-10-17T06:02:40.877Z,12.74
2022-10-17T06:05:08.526Z,13.06
2022-10-17T06:07:35.751Z,12.95
2022-10-17T06:10:03.201Z,13.15
2022-10-17T06:12:31.528Z,13.20
2022-10-17T06:14:59.024Z,13.12
2022-10-17T06:17:26.217Z,13.11
2022-10-17T06:19:57.278Z,13.12
2022-10-17T06:22:38.628Z,13.33
2022-10-17T06:25:08.061Z,13.36
2022-10-17T06:27:34.778Z,13.48
2022-10-17T06:30:01.677Z,13.63
2022-10-17T06:32:29.274Z,13.73
2022-10-17T06:34:56.089Z,13.69
2022-10-17T06:37:23.820Z,13.82
2022-10-17T06:39:50.939Z,14.04
2022-10-17T06:42:18.256Z,13.98
2022-10-17T06:44:46.051Z,14.22
2022-10-17T06:47:16.587Z,14.33
2022-10-17T06:49:46.333Z,14.50
2022-10-17T06:52:13.343Z,14.71
2022-10-17T06:54:40.608Z,15.07
2022-10-17T06:57:07.427Z,15.35
2022-10-17T06:59:35.369Z,15.69
2022-10-17T07:02:06.496Z,16.08
2022-10-17T07:04:33.683Z,16.44
2022-10-17T07:07:03.166Z,16.81
2022-10-17T07:09:31.257Z,17.07
2022-10-17T07:11:58.289Z,17.25
2022-10-17T07:14:31.960Z,17.51
2022-10-17T07:16:59.540Z,17.76
2022-10-17T07:19:27.452Z,18.00
2022-10-17T07:21:54.359Z,18.26
2022-10-17T07:24:21.299Z,18.44
2022-10-17T07:26:48.507Z,18.67
2022-10-17T07:29:15.375Z,18.90
2022-10-17T07:31:42.550Z,19.08
2022-10-17T07:34:09.453Z,19.29
2022-10-17T07:36:36.225Z,19.37
2022-10-17T07:39:03.532Z,19.51
2022-10-17T07:41:30.620Z,19.77
2022-10-17T07:43:57.443Z,19.89
2022-10-17T07:46:24.679Z,20.09
2022-10-17T07:48:51.808Z,20.25
2022-10-17T07:51:20.219Z,20.40
2022-10-17T07:53:48.828Z,20.49
2022-10-17T07:56:16.129Z,20.59
2022-10-17T07:58:42.836Z,20.61
2022-10-17T08:01:14.853Z,20.39
2022-10-17T08:03:43.658Z,20.93
2022-10-17T08:06:10.378Z,20.96
2022-10-17T08:08:37.178Z,21.13
2022-10-17T08:11:05.234Z,21.34
2022-10-17T08:13:32.156Z,21.26
2022-10-17T08:16:02.783Z,21.19
2022-10-17T08:18:29.805Z,21.50
2022-10-17T08:21:00.277Z,21.34
2022-10-17T08:23:27.655Z,21.44
2022-10-17T08:25:54.698Z,21.48
2022-10-17T08:28:21.477Z,21.42
2022-10-17T08:30:51.299Z,21.41
2022-10-17T08:33:18.219Z,21.87
2022-10-17T08:35:44.904Z,21.97
2022-10-17T08:38:13.325Z,21.79
2022-10-17T08:40:42.844Z,22.03
2022-10-17T08:43:26.646Z,22.07
2022-10-17T08:45:55.320Z,21.69
2022-10-17T08:48:23.937Z,21.92
2022-10-17T08:50:51.945Z,22.19
2022-10-17T08:53:31.943Z,21.81
2022-10-17T08:55:59.935Z,22.10
2022-10-17T08:58:31.115Z,22.26
2022-10-17T09:00:57.805Z,22.39
2022-10-17T09:03:28.049Z,22.54
2022-10-17T09:05:58.152Z,22.62
2022-10-17T09:08:29.169Z,22.25
2022-10-17T09:10:58.298Z,22.17
2022-10-17T09:13:27.578Z,22.31
2022-10-17T09:15:54.310Z,22.43
2022-10-17T09:18:28.262Z,22.26
2022-10-17T09:20:56.080Z,22.38
2022-10-17T09:23:24.092Z,22.73
2022-10-17T09:25:52.921Z,22.45
2022-10-17T09:28:32.876Z,22.61
2022-10-17T09:31:01.741Z,22.65
2022-10-17T09:33:35.895Z,22.47
2022-10-17T09:36:11.248Z,22.78
2022-10-17T09:38:39.431Z,22.81
2022-10-17T09:41:25.657Z,22.46
2022-10-17T09:43:56.925Z,22.62
2022-10-17T09:46:29.722Z,22.81
2022-10-17T09:49:04.093Z,22.88
2022-10-17T09:51:31.349Z,23.22
2022-10-17T09:54:02.009Z,23.03
2022-10-17T09:56:28.998Z,23.30
2022-10-17T09:58:58.780Z,23.52
2022-10-17T10:01:27.506Z,23.31
2022-10-17T10:04:15.010Z,23.70
2022-10-17T10:06:42.322Z,23.63
2022-10-17T10:09:22.704Z,23.51
2022-10-17T10:11:49.888Z,23.59
2022-10-17T10:14:24.520Z,23.19
2022-10-17T10:16:53.619Z,23.22
2022-10-17T10:19:33.817Z,23.64
2022-10-17T10:22:01.855Z,23.53
2022-10-17T10:24:30.990Z,23.83
2022-10-17T10:26:59.117Z,23.94
2022-10-17T10:29:32.864Z,23.77
2022-10-17T10:32:16.649Z,23.82
2022-10-17T10:34:49.244Z,23.88
2022-10-17T10:37:17.380Z,23.83
2022-10-17T10:39:54.692Z,23.70
2022-10-17T10:42:24.592Z,23.91
2022-10-17T10:44:51.597Z,23.44
2022-10-17T10:47:20.317Z,23.77
2022-10-17T10:49:47.388Z,23.83
2022-10-17T10:52:18.408Z,23.76
2022-10-17T10:54:50.510Z,24.07
2022-10-17T10:57:20.015Z,23.59
2022-10-17T11:00:05.743Z,23.91
2022-10-17T11:02:32.673Z,23.87
2022-10-17T11:05:01.402Z,23.96
2022-10-17T11:07:35.688Z,24.35
2022-10-17T11:10:14.841Z,24.06
2022-10-17T11:12:51.494Z,24.23
2022-10-17T11:15:37.229Z,24.29
2022-10-17T11:18:05.444Z,24.27
2022-10-17T11:20:52.329Z,24.34
2022-10-17T11:23:21.532Z,24.36
2022-10-17T11:25:49.595Z,24.16
2022-10-17T11:28:19.718Z,24.49
2022-10-17T11:30:51.687Z,24.67
2022-10-17T11:33:20.767Z,24.58
2022-10-17T11:35:48.195Z,24.73
2022-10-17T11:38:14.864Z,24.59
2022-10-17T11:40:44.130Z,24.49
2022-10-17T11:43:21.209Z,24.35
2022-10-17T11:45:48.937Z,24.41
2022-10-17T11:48:45.030Z,24.63
2022-10-17T11:54:13.599Z,24.83
2022-10-17T11:56:46.767Z,24.59
2022-10-17T11:59:16.644Z,24.27
2022-10-17T12:01:52.885Z,24.51
2022-10-17T12:04:19.996Z,24.39
2022-10-17T12:06:52.868Z,24.30
2022-10-17T12:09:20.736Z,24.44
2022-10-17T12:11:50.666Z,24.58
2022-10-17T12:14:36.443Z,24.58
2022-10-17T12:17:04.015Z,24.84
2022-10-17T12:19:34.994Z,24.30
2022-10-17T12:22:04.917Z,24.76
2022-10-17T12:24:34.154Z,24.57
2022-10-17T12:27:19.666Z,24.41
2022-10-17T12:29:48.478Z,24.42
2022-10-17T12:32:17.989Z,24.27
2022-10-17T12:34:51.845Z,24.26
2022-10-17T12:37:38.813Z,24.01
2022-10-17T12:40:25.575Z,24.14
2022-10-17T12:42:52.620Z,24.17
2022-10-17T12:45:38.211Z,23.93
2022-10-17T12:48:09.525Z,24.08
2022-10-17T12:51:34.247Z,24.27
2022-10-17T12:53:59.557Z,24.17
2022-10-17T12:56:43.165Z,24.05
2022-10-17T12:59:25.203Z,23.96
2022-10-17T13:01:56.535Z,24.02
2022-10-17T13:04:24.049Z,24.02
2022-10-17T13:06:55.247Z,24.04
2022-10-17T13:09:26.682Z,23.85
2022-10-17T13:11:54.426Z,24.10
2022-10-17T13:14:23.865Z,23.38
2022-10-17T13:16:52.136Z,24.05
2022-10-17T13:19:25.590Z,24.14
2022-10-17T13:21:59.873Z,24.01
2022-10-17T13:24:29.283Z,24.03
2022-10-17T13:26:55.929Z,23.97
2022-10-17T13:29:25.655Z,23.74
2022-10-17T13:31:54.378Z,24.09
2022-10-17T13:34:25.378Z,24.10
2022-10-17T13:36:53.690Z,24.25
2022-10-17T13:39:32.600Z,24.27
2022-10-17T13:42:16.419Z,23.96
2022-10-17T13:44:43.583Z,24.03
2022-10-17T13:47:23.685Z,24.27
2022-10-17T13:49:54.275Z,23.88
2022-10-17T13:52:23.749Z,23.88
2022-10-17T13:54:51.236Z,23.58
2022-10-17T13:57:22.999Z,23.45
2022-10-17T13:59:51.943Z,23.60
2022-10-17T14:02:32.277Z,23.82
2022-10-17T14:05:19.343Z,23.81
2022-10-17T14:08:10.123Z,23.87
2022-10-17T14:10:34.756Z,23.87
2022-10-17T14:13:01.679Z,23.86
2022-10-17T14:15:29.555Z,23.72
2022-10-17T14:17:57.618Z,23.83
2022-10-17T14:21:01.598Z,23.34
2022-10-17T14:23:40.656Z,23.52
2022-10-17T14:26:08.981Z,23.80
2022-10-17T14:28:36.194Z,23.64
2022-10-17T14:31:09.788Z,23.41
2022-10-17T14:33:39.929Z,23.54
2022-10-17T14:36:09.281Z,23.52
2022-10-17T14:38:36.433Z,23.40
2022-10-17T14:41:30.552Z,23.60
2022-10-17T14:43:59.842Z,23.69
2022-10-17T14:46:26.498Z,23.79
2022-10-17T14:48:54.712Z,23.74
2022-10-17T14:51:21.639Z,23.50
2022-10-17T14:54:05.291Z,23.30
2022-10-17T14:56:37.441Z,23.41
2022-10-17T14:59:07.549Z,23.25
2022-10-17T15:01:38.136Z,23.28
2022-10-17T15:04:04.862Z,23.28
2022-10-17T15:06:34.874Z,23.38
2022-10-17T15:09:02.082Z,23.21
2022-10-17T15:11:28.743Z,23.39
2022-10-17T15:13:55.691Z,23.36
2022-10-17T15:16:26.871Z,23.37
2022-10-17T15:18:53.807Z,23.38
2022-10-17T15:21:26.659Z,23.34
2022-10-17T15:24:04.847Z,23.26
2022-10-17T15:26:31.844Z,23.30
2022-10-17T15:28:58.628Z,23.19
2022-10-17T15:31:26.349Z,23.14
2022-10-17T15:33:53.068Z,23.07
2022-10-17T15:36:23.733Z,23.02
2022-10-17T15:38:52.258Z,22.89
2022-10-17T15:41:19.433Z,22.73
2022-10-17T15:43:47.028Z,22.57
2022-10-17T15:46:18.351Z,22.46
2022-10-17T15:48:45.284Z,22.35
2022-10-17T15:51:12.017Z,22.24
2022-10-17T15:53:39.024Z,22.09
2022-10-17T15:56:05.968Z,21.94
2022-10-17T15:58:36.930Z,21.69
2022-10-17T16:01:04.469Z,21.74
2022-10-17T16:03:31.432Z,21.62
2022-10-17T16:05:58.078Z,21.33
2022-10-17T16:08:24.934Z,21.40
2022-10-17T16:10:52.223Z,21.27
2022-10-17T16:13:19.419Z,21.28
2022-10-17T16:15:46.095Z,21.17
2022-10-17T16:18:12.988Z,20.99
2022-10-17T16:20:39.700Z,20.69
2022-10-17T16:23:07.739Z,20.59
2022-10-17T16:25:34.920Z,20.61
2022-10-17T16:28:01.722Z,20.67
2022-10-17T16:30:29.241Z,20.63
2022-10-17T16:32:56.870Z,20.43
2022-10-17T16:35:24.910Z,20.29
2022-10-17T16:37:51.627Z,20.15
2022-10-17T16:40:18.576Z,20.20
2022-10-17T16:42:45.262Z,20.09
2022-10-17T16:45:16.328Z,20.12
2022-10-17T16:47:43.334Z,19.98
2022-10-17T16:50:10.187Z,19.89
2022-10-17T16:52:36.891Z,19.71
2022-10-17T16:55:03.978Z,19.39
2022-10-17T16:57:30.742Z,19.32
2022-10-17T16:59:57.608Z,19.21
2022-10-17T17:02:24.588Z,19.31
2022-10-17T17:04:51.397Z,19.27
2022-10-17T17:07:19.706Z,19.40
2022-10-17T17:09:46.711Z,19.22
2022-10-17T17:12:13.761Z,18.96
2022-10-17T17:14:40.923Z,18.93
2022-10-17T17:17:12.326Z,18.70
2022-10-17T17:19:47.394Z,18.68
2022-10-17T17:22:14.828Z,18.75
2022-10-17T17:24:41.611Z,18.58
2022-10-17T17:27:11.303Z,18.61
2022-10-17T17:29:40.848Z,18.54
2022-10-17T17:32:07.709Z,18.37
2022-10-17T17:34:37.715Z,18.46
2022-10-17T17:37:05.243Z,18.52
2022-10-17T17:39:32.369Z,18.33
2022-10-17T17:41:59.281Z,18.45
2022-10-17T17:44:26.793Z,18.32
2022-10-17T17:46:54.106Z,18.31
2022-10-17T17:49:20.989Z,18.21
2022-10-17T17:51:48.085Z,18.19
2022-10-17T17:54:15.241Z,18.12
2022-10-17T17:56:42.313Z,17.93
2022-10-17T17:59:10.348Z,18.18
2022-10-17T18:01:38.751Z,17.95
2022-10-17T18:04:07.037Z,17.88
2022-10-17T18:06:33.726Z,18.02
2022-10-17T18:09:01.809Z,17.79
2022-10-17T18:11:30.481Z,17.58
2022-10-17T18:14:02.702Z,17.60
2022-10-17T18:16:31.549Z,17.60
2022-10-17T18:19:02.612Z,17.57
2022-10-17T18:21:33.489Z,17.64
2022-10-17T18:24:03.428Z,17.51
2022-10-17T18:26:30.688Z,17.48
2022-10-17T18:28:58.218Z,17.48
2022-10-17T18:31:28.822Z,17.34
2022-10-17T18:33:57.354Z,17.12
2022-10-17T18:36:29.422Z,17.20
2022-10-17T18:38:56.573Z,17.28
2022-10-17T18:41:24.687Z,17.13
2022-10-17T18:43:52.680Z,16.97
2022-10-17T18:46:21.103Z,17.04
2022-10-17T18:48:48.975Z,17.05
2022-10-17T18:51:16.954Z,17.07
2022-10-17T18:53:45.872Z,16.98
2022-10-17T18:56:13.565Z,16.67
2022-10-17T18:58:42.085Z,16.91
2022-10-17T19:01:18.174Z,16.89
2022-10-17T19:03:46.582Z,16.77
2022-10-17T19:06:14.606Z,16.67
2022-10-17T19:08:44.421Z,16.85
2022-10-17T19:11:13.441Z,16.78
2022-10-17T19:13:40.706Z,16.40
2022-10-17T19:16:08.862Z,16.51
2022-10-17T19:18:36.856Z,16.68
2022-10-17T19:21:04.599Z,16.40
2022-10-17T19:23:31.887Z,16.48
2022-10-17T19:26:03.146Z,16.32
2022-10-17T19:28:30.181Z,16.37
2022-10-17T19:30:59.430Z,16.45
2022-10-17T19:33:29.774Z,16.32
2022-10-17T19:35:57.634Z,16.43
2022-10-17T19:38:24.507Z,16.22
2022-10-17T19:40:52.437Z,16.33
2022-10-17T19:43:47.205Z,16.14
2022-10-17T19:46:15.608Z,16.10
2022-10-17T19:48:42.861Z,16.31
2022-10-17T19:51:14.018Z,16.39
2022-10-17T19:53:41.694Z,16.14
2022-10-17T19:56:09.514Z,16.15
2022-10-17T19:58:46.698Z,15.95
2022-10-17T20:01:21.822Z,16.15
2022-10-17T20:03:49.507Z,16.01
2022-10-17T20:06:16.822Z,16.13
2022-10-17T20:08:43.565Z,15.96
2022-10-17T20:11:14.952Z,15.94
2022-10-17T20:13:41.789Z,15.93
2022-10-17T20:16:09.273Z,16.08
2022-10-17T20:18:36.466Z,15.69
2022-10-17T20:21:04.459Z,15.75
2022-10-17T20:23:31.195Z,15.47
2022-10-17T20:26:08.750Z,15.76
2022-10-17T20:28:45.889Z,15.42
2022-10-17T20:31:13.489Z,15.79
2022-10-17T20:33:41.494Z,15.46
2022-10-17T20:36:09.374Z,15.50
2022-10-17T20:38:36.342Z,15.50
2022-10-17T20:41:07.025Z,15.25
2022-10-17T20:43:33.917Z,15.59
2022-10-17T20:46:09.790Z,15.52
2022-10-17T20:48:51.005Z,15.54
2022-10-17T20:51:17.961Z,15.50
2022-10-17T20:53:44.640Z,15.62
2022-10-17T20:56:13.688Z,15.50
2022-10-17T20:58:40.648Z,15.30
2022-10-17T21:01:08.486Z,15.17
2022-10-17T21:03:41.150Z,15.29
2022-10-17T21:06:11.137Z,15.14
2022-10-17T21:08:37.811Z,15.24
2022-10-17T21:11:11.173Z,14.92
2022-10-17T21:13:38.274Z,14.84
2022-10-17T21:16:05.998Z,14.74
2022-10-17T21:18:32.726Z,14.68
2022-10-17T21:21:09.618Z,14.80
2022-10-17T21:23:36.450Z,14.92
2022-10-17T21:26:04.120Z,15.22
2022-10-17T21:28:31.150Z,15.30
2022-10-17T21:31:06.780Z,14.82
2022-10-17T21:33:33.691Z,15.07
2022-10-17T21:36:00.346Z,15.03
2022-10-17T21:38:28.078Z,15.17
2022-10-17T21:40:56.069Z,15.00
2022-10-17T21:43:23.002Z,15.08
2022-10-17T21:45:49.680Z,15.08
2022-10-17T21:48:16.636Z,15.00
2022-10-17T21:50:43.352Z,14.93
2022-10-17T21:53:10.052Z,14.63
2022-10-17T21:55:37.572Z,14.67
2022-10-17T21:58:04.454Z,14.68
2022-10-17T22:00:31.179Z,14.92
2022-10-17T22:02:58.110Z,15.00
2022-10-17T22:05:24.820Z,14.98
2022-10-17T22:07:51.524Z,14.58
2022-10-17T22:10:18.425Z,14.65
2022-10-17T22:12:45.114Z,14.77
2022-10-17T22:15:11.802Z,14.67
2022-10-17T22:17:38.760Z,14.67
2022-10-17T22:20:05.649Z,14.74
2022-10-17T22:22:32.428Z,14.69
2022-10-17T22:24:59.353Z,14.66
2022-10-17T22:27:26.008Z,14.82
2022-10-17T22:29:52.694Z,14.63
2022-10-17T22:32:22.379Z,14.53
2022-10-17T22:34:49.380Z,14.43
2022-10-17T22:37:16.034Z,14.53
2022-10-17T22:39:42.999Z,14.69
2022-10-17T22:42:09.676Z,14.33
2022-10-17T22:44:41.176Z,14.25
2022-10-17T22:47:08.091Z,14.56
2022-10-17T22:49:34.809Z,14.52
2022-10-17T22:52:01.539Z,14.40
2022-10-17T22:54:28.959Z,14.55
2022-10-17T22:56:55.618Z,14.13
2022-10-17T22:59:22.390Z,14.28
2022-10-17T23:01:49.533Z,14.28
2022-10-17T23:04:16.196Z,13.95
2022-10-17T23:06:42.870Z,14.15
2022-10-17T23:09:09.876Z,14.30
2022-10-17T23:11:36.543Z,14.41
2022-10-17T23:14:03.178Z,14.31
2022-10-17T23:16:30.109Z,14.31
2022-10-17T23:18:57.281Z,13.97
2022-10-17T23:21:23.959Z,14.24
2022-10-17T23:23:50.892Z,14.22
2022-10-17T23:26:19.658Z,14.05
2022-10-17T23:28:46.352Z,14.24
2022-10-17T23:31:17.339Z,14.21
2022-10-17T23:33:45.128Z,14.04
2022-10-17T23:36:13.113Z,13.84
2022-10-17T23:38:40.485Z,13.91
2022-10-17T23:41:07.203Z,13.66
2022-10-17T23:43:34.349Z,13.87
2022-10-17T23:46:01.647Z,13.39
2022-10-17T23:48:28.464Z,13.61
2022-10-17T23:50:56.061Z,13.96
2022-10-17T23:53:23.480Z,13.94
2022-10-17T23:55:50.260Z,14.01
2022-10-17T23:58:16.994Z,13.86
